createdAt,value
2023-01-27T00:00:52.520Z,-0.40
2023-01-27T00:03:19.580Z,-0.40
2023-01-27T00:05:47.583Z,-0.40
2023-01-27T00:08:15.266Z,-0.50
2023-01-27T00:10:43.957Z,-0.50
2023-01-27T00:13:28.740Z,-0.40
2023-01-27T00:15:56.129Z,-0.50
2023-01-27T00:18:23.900Z,-0.50
2023-01-27T00:21:10.140Z,-0.50
2023-01-27T00:23:55.698Z,-0.50
2023-01-27T00:26:22.841Z,-0.50
2023-01-27T00:28:49.745Z,-0.50
2023-01-27T00:31:38.240Z,-0.50
2023-01-27T00:34:09.443Z,-0.50
2023-01-27T00:36:38.189Z,-0.40
2023-01-27T00:39:06.559Z,-0.40
2023-01-27T00:41:34.355Z,-0.50
2023-01-27T00:44:01.984Z,-0.60
2023-01-27T00:46:29.465Z,-0.40
2023-01-27T00:48:56.573Z,-0.50
2023-01-27T00:51:23.655Z,-0.60
2023-01-27T00:53:51.102Z,-0.50
2023-01-27T00:56:18.587Z,-0.50
2023-01-27T00:58:45.373Z,-0.50
2023-01-27T01:01:14.690Z,-0.50
2023-01-27T01:03:42.067Z,-0.50
2023-01-27T01:06:11.239Z,-0.50
2023-01-27T01:08:38.884Z,-0.60
2023-01-27T01:11:08.238Z,-0.70
2023-01-27T01:13:35.474Z,-0.70
2023-01-27T01:16:10.205Z,-0.60
2023-01-27T01:18:37.942Z,-0.60
2023-01-27T01:21:09.051Z,-0.60
2023-01-27T01:23:41.099Z,-0.60
2023-01-27T01:26:10.343Z,-0.70
2023-01-27T01:28:37.738Z,-0.70
2023-01-27T01:31:18.808Z,-0.80
2023-01-27T01:33:50.043Z,-0.70
2023-01-27T01:36:22.383Z,-0.60
2023-01-27T01:38:49.492Z,-0.60
2023-01-27T01:41:19.663Z,-0.50
2023-01-27T01:43:47.049Z,-0.60
2023-01-27T01:46:14.383Z,-0.70
2023-01-27T01:49:01.239Z,-0.60
2023-01-27T01:51:40.026Z,-0.60
2023-01-27T01:54:23.886Z,-0.80
2023-01-27T01:57:05.032Z,-0.70
2023-01-27T01:59:33.510Z,-0.60
2023-01-27T02:02:04.917Z,-0.60
2023-01-27T02:04:39.801Z,-0.70
2023-01-27T02:07:21.196Z,-0.80
2023-01-27T02:09:48.091Z,-0.70
2023-01-27T02:12:17.525Z,-0.80
2023-01-27T02:14:44.335Z,-0.80
2023-01-27T02:17:13.401Z,-0.80
2023-01-27T02:20:14.343Z,-0.70
2023-01-27T02:23:12.719Z,-0.70
2023-01-27T02:25:59.074Z,-0.70
2023-01-27T02:28:30.612Z,-0.80
2023-01-27T02:30:58.085Z,-0.90
2023-01-27T02:33:25.020Z,-1.00
2023-01-27T02:36:12.249Z,-1.00
2023-01-27T02:38:43.918Z,-0.90
2023-01-27T02:41:25.832Z,-0.80
2023-01-27T02:43:52.812Z,-0.80
2023-01-27T02:46:20.007Z,-0.80
2023-01-27T02:48:46.846Z,-0.70
2023-01-27T02:51:13.922Z,-0.70
2023-01-27T02:53:41.204Z,-0.70
2023-01-27T02:56:08.347Z,-0.70
2023-01-27T02:58:35.132Z,-0.60
2023-01-27T03:01:02.070Z,-0.70
2023-01-27T03:03:28.931Z,-0.70
2023-01-27T03:05:55.839Z,-0.60
2023-01-27T03:08:22.691Z,-0.60
2023-01-27T03:10:55.373Z,-0.60
2023-01-27T03:13:23.586Z,-0.60
2023-01-27T03:16:12.754Z,-0.70
2023-01-27T03:18:41.069Z,-0.80
2023-01-27T03:21:08.068Z,-0.80
2023-01-27T03:23:35.018Z,-0.90
2023-01-27T03:26:05.956Z,-0.80
2023-01-27T03:28:34.980Z,-0.90
2023-01-27T03:31:07.702Z,-0.90
2023-01-27T03:33:35.351Z,-0.90
2023-01-27T03:36:23.423Z,-1.00
2023-01-27T03:39:10.651Z,-0.90
2023-01-27T03:41:56.054Z,-0.90
2023-01-27T03:44:41.441Z,-0.80
2023-01-27T03:47:08.253Z,-0.90
2023-01-27T03:49:34.997Z,-0.90
2023-01-27T03:52:01.786Z,-0.90
2023-01-27T03:54:30.711Z,-0.90
2023-01-27T03:57:00.260Z,-0.70
2023-01-27T03:59:27.062Z,-0.80
2023-01-27T04:01:53.900Z,-0.80
2023-01-27T04:04:41.718Z,-0.90
2023-01-27T04:07:08.487Z,-0.90
2023-01-27T04:09:39.199Z,-0.80
2023-01-27T04:12:07.056Z,-0.70
2023-01-27T04:14:38.938Z,-0.70
2023-01-27T04:17:10.889Z,-0.70
2023-01-27T04:19:38.120Z,-0.70
2023-01-27T04:22:05.915Z,-0.60
2023-01-27T04:24:32.904Z,-0.60
2023-01-27T04:27:07.228Z,-0.60
2023-01-27T04:29:36.196Z,-0.60
2023-01-27T04:32:06.151Z,-0.60
2023-01-27T04:34:33.421Z,-0.80
2023-01-27T04:37:01.075Z,-1.00
2023-01-27T04:39:30.337Z,-1.00
2023-01-27T04:41:57.688Z,-1.00
2023-01-27T04:44:25.043Z,-0.90
2023-01-27T04:46:52.234Z,-0.90
2023-01-27T04:49:19.135Z,-0.90
2023-01-27T04:51:47.311Z,-0.70
2023-01-27T04:54:14.631Z,-0.70
2023-01-27T04:56:53.899Z,-0.70
2023-01-27T04:59:20.711Z,-0.80
2023-01-27T05:01:47.502Z,-0.90
2023-01-27T05:04:14.334Z,-1.10
2023-01-27T05:06:43.507Z,-1.00
2023-01-27T05:09:12.365Z,-1.00
2023-01-27T05:11:39.160Z,-1.00
2023-01-27T05:14:06.024Z,-1.00
2023-01-27T05:16:32.910Z,-0.90
2023-01-27T05:18:59.685Z,-0.90
2023-01-27T05:21:28.453Z,-0.80
2023-01-27T05:23:55.273Z,-0.70
2023-01-27T05:26:24.499Z,-0.80
2023-01-27T05:28:52.926Z,-0.90
2023-01-27T05:31:22.996Z,-0.80
2023-01-27T05:33:55.187Z,-0.90
2023-01-27T05:36:23.855Z,-0.90
2023-01-27T05:38:51.107Z,-0.90
2023-01-27T05:41:22.272Z,-0.90
2023-01-27T05:43:53.177Z,-0.80
2023-01-27T05:46:24.671Z,-0.90
2023-01-27T05:48:54.707Z,-1.00
2023-01-27T05:51:24.100Z,-1.00
2023-01-27T05:53:53.654Z,-1.00
2023-01-27T05:56:21.114Z,-0.90
2023-01-27T05:58:47.985Z,-0.90
2023-01-27T06:01:21.641Z,-1.00
2023-01-27T06:03:49.241Z,-1.10
2023-01-27T06:06:18.477Z,-1.00
2023-01-27T06:08:47.364Z,-1.00
2023-01-27T06:11:15.128Z,-1.00
2023-01-27T06:13:44.565Z,-1.00
2023-01-27T06:16:13.748Z,-1.00
2023-01-27T06:18:41.082Z,-1.00
2023-01-27T06:21:10.057Z,-1.10
2023-01-27T06:23:37.641Z,-1.10
2023-01-27T06:26:13.403Z,-1.10
2023-01-27T06:28:40.488Z,-1.00
2023-01-27T06:31:13.561Z,-1.00
2023-01-27T06:33:40.652Z,-1.00
2023-01-27T06:36:14.875Z,-1.10
2023-01-27T06:38:42.292Z,-1.00
2023-01-27T06:41:09.158Z,-0.90
2023-01-27T06:43:35.995Z,-0.90
2023-01-27T06:46:05.870Z,-0.80
2023-01-27T06:48:35.056Z,-0.90
2023-01-27T06:51:01.994Z,-1.00
2023-01-27T06:53:28.852Z,-1.00
2023-01-27T06:55:57.077Z,-1.10
2023-01-27T06:58:26.300Z,-1.10
2023-01-27T07:00:54.516Z,-0.90
2023-01-27T07:03:21.422Z,-0.80
2023-01-27T07:05:48.275Z,-0.80
2023-01-27T07:08:15.235Z,-0.80
2023-01-27T07:10:42.087Z,-0.70
2023-01-27T07:13:14.040Z,-0.70
2023-01-27T07:15:41.571Z,-0.70
2023-01-27T07:18:09.433Z,-1.00
2023-01-27T07:20:36.289Z,-1.10
2023-01-27T07:23:07.169Z,-1.00
2023-01-27T07:25:36.729Z,-1.10
2023-01-27T07:28:03.921Z,-1.10
2023-01-27T07:30:32.001Z,-1.10
2023-01-27T07:33:06.759Z,-1.10
2023-01-27T07:35:33.692Z,-1.10
2023-01-27T07:38:00.469Z,-1.00
2023-01-27T07:40:29.508Z,-1.00
2023-01-27T07:43:02.843Z,-1.00
2023-01-27T07:45:37.207Z,-0.90
2023-01-27T07:48:08.371Z,-0.80
2023-01-27T07:50:36.551Z,-0.70
2023-01-27T07:53:05.608Z,-0.60
2023-01-27T07:55:33.450Z,-0.70
2023-01-27T07:58:00.447Z,-0.80
2023-01-27T08:00:28.497Z,-0.90
2023-01-27T08:02:56.752Z,-1.00
2023-01-27T08:05:23.918Z,-0.90
2023-01-27T08:07:51.698Z,-0.90
2023-01-27T08:10:20.313Z,-0.90
2023-01-27T08:12:47.858Z,-0.80
2023-01-27T08:15:18.650Z,-0.80
2023-01-27T08:17:53.661Z,-0.90
2023-01-27T08:20:23.448Z,-0.90
2023-01-27T08:22:50.225Z,-1.00
2023-01-27T08:25:17.265Z,-0.90
2023-01-27T08:27:44.386Z,-0.90
2023-01-27T08:30:13.970Z,-0.90
2023-01-27T08:32:40.969Z,-0.90
2023-01-27T08:35:08.172Z,-0.90
2023-01-27T08:37:37.801Z,-0.80
2023-01-27T08:40:04.955Z,-0.80
2023-01-27T08:42:31.746Z,-0.90
2023-01-27T08:45:00.467Z,-0.90
2023-01-27T08:47:27.268Z,-0.90
2023-01-27T08:49:54.449Z,-0.90
2023-01-27T08:52:27.224Z,-1.00
2023-01-27T08:54:56.554Z,-1.00
2023-01-27T08:57:24.793Z,-0.90
2023-01-27T08:59:51.812Z,-0.90
2023-01-27T09:02:18.665Z,-0.90
2023-01-27T09:04:45.499Z,-1.00
2023-01-27T09:07:12.433Z,-1.00
2023-01-27T09:09:39.269Z,-1.00
2023-01-27T09:12:06.234Z,-1.00
2023-01-27T09:14:33.701Z,-1.00
2023-01-27T09:17:00.507Z,-0.90
2023-01-27T09:19:27.292Z,-1.00
2023-01-27T09:25:34.932Z,-1.00
2023-01-27T09:28:01.743Z,-1.00
2023-01-27T09:30:29.313Z,-1.00
2023-01-27T09:33:00.405Z,-1.00
2023-01-27T09:35:38.249Z,-1.10
2023-01-27T09:38:06.256Z,-1.00
2023-01-27T09:40:39.082Z,-1.00
2023-01-27T09:43:24.618Z,-0.90
2023-01-27T09:46:01.818Z,-0.90
2023-01-27T09:49:01.320Z,-0.90
2023-01-27T09:52:07.595Z,-0.70
2023-01-27T09:54:40.406Z,-0.70
2023-01-27T09:57:16.467Z,-0.60
2023-01-27T10:00:16.405Z,-0.60
2023-01-27T10:03:17.440Z,-0.60
2023-01-27T10:06:08.377Z,-0.50
2023-01-27T10:08:57.036Z,-0.40
2023-01-27T10:11:48.558Z,-0.30
2023-01-27T10:14:27.442Z,-0.30
2023-01-27T10:17:08.931Z,-0.40
2023-01-27T10:19:42.221Z,-0.40
2023-01-27T10:22:27.069Z,-0.20
2023-01-27T10:25:07.671Z,0.00
2023-01-27T10:27:38.837Z,0.10
2023-01-27T10:30:34.357Z,0.20
2023-01-27T10:33:22.283Z,0.20
2023-01-27T10:35:52.328Z,0.10
2023-01-27T10:38:40.682Z,0.30
2023-01-27T10:41:44.278Z,0.40
2023-01-27T10:44:28.933Z,0.50
2023-01-27T10:47:25.126Z,0.60
2023-01-27T10:50:09.976Z,0.60
2023-01-27T10:52:56.956Z,0.50
2023-01-27T10:55:29.693Z,0.50
2023-01-27T10:58:14.284Z,0.60
2023-01-27T11:01:19.263Z,0.70
2023-01-27T11:03:45.923Z,0.80
2023-01-27T11:06:17.585Z,0.70
2023-01-27T11:08:52.198Z,0.80
2023-01-27T11:11:41.067Z,0.80
2023-01-27T11:14:40.818Z,0.70
2023-01-27T11:17:26.012Z,0.80
2023-01-27T11:20:02.820Z,0.70
2023-01-27T11:22:39.398Z,0.40
2023-01-27T11:25:27.539Z,0.60
2023-01-27T11:28:25.602Z,0.80
2023-01-27T11:31:03.494Z,0.80
2023-01-27T11:33:48.836Z,0.90
2023-01-27T11:36:18.101Z,0.90
2023-01-27T11:38:44.941Z,0.90
2023-01-27T11:41:11.905Z,0.90
2023-01-27T11:43:40.086Z,0.90
2023-01-27T11:46:13.785Z,0.90
2023-01-27T11:48:45.531Z,0.90
2023-01-27T11:51:39.194Z,0.90
2023-01-27T11:54:25.410Z,0.70
2023-01-27T11:56:52.235Z,0.70
2023-01-27T11:59:31.346Z,0.80
2023-01-27T12:02:07.090Z,0.90
2023-01-27T12:04:48.362Z,0.70
2023-01-27T12:07:25.848Z,0.70
2023-01-27T12:09:54.825Z,0.80
2023-01-27T12:12:31.527Z,0.80
2023-01-27T12:14:59.723Z,1.00
2023-01-27T12:17:41.968Z,1.20
2023-01-27T12:20:55.735Z,1.10
2023-01-27T12:23:28.003Z,1.10
2023-01-27T12:26:12.276Z,1.00
2023-01-27T12:28:52.999Z,0.90
2023-01-27T12:31:45.610Z,1.00
2023-01-27T12:34:37.830Z,1.00
2023-01-27T12:37:07.680Z,1.10
2023-01-27T12:39:41.721Z,1.10
2023-01-27T12:42:35.237Z,1.10
2023-01-27T12:45:19.138Z,1.00
2023-01-27T12:48:19.413Z,0.90
2023-01-27T12:50:52.677Z,1.00
2023-01-27T12:53:21.453Z,1.10
2023-01-27T12:56:11.280Z,1.00
2023-01-27T12:58:55.851Z,1.10
2023-01-27T13:01:37.388Z,1.10
2023-01-27T13:04:20.501Z,1.00
2023-01-27T13:06:56.509Z,0.90
2023-01-27T13:09:51.133Z,0.90
2023-01-27T13:12:28.431Z,1.00
2023-01-27T13:15:20.625Z,1.10
2023-01-27T13:17:50.256Z,1.20
2023-01-27T13:20:28.528Z,1.20
2023-01-27T13:23:05.640Z,1.10
2023-01-27T13:25:54.392Z,1.20
2023-01-27T13:28:50.285Z,1.20
2023-01-27T13:31:27.905Z,1.20
2023-01-27T13:34:06.034Z,1.20
2023-01-27T13:36:53.116Z,1.10
2023-01-27T13:39:43.175Z,1.20
2023-01-27T13:42:18.708Z,1.70
2023-01-27T13:44:51.145Z,1.20
2023-01-27T13:47:27.777Z,1.20
2023-01-27T13:50:05.391Z,1.20
2023-01-27T13:52:32.255Z,1.20
2023-01-27T13:54:59.092Z,1.20
2023-01-27T13:57:44.560Z,1.20
2023-01-27T14:00:23.973Z,1.00
2023-01-27T14:02:53.946Z,1.00
2023-01-27T14:05:41.823Z,1.00
2023-01-27T14:08:23.397Z,1.00
2023-01-27T14:11:08.082Z,1.10
2023-01-27T14:13:59.639Z,1.10
2023-01-27T14:16:42.176Z,1.10
2023-01-27T14:19:17.655Z,1.10
2023-01-27T14:21:57.559Z,1.10
2023-01-27T14:24:47.739Z,1.00
2023-01-27T14:27:32.055Z,0.90
2023-01-27T14:30:04.956Z,1.00
2023-01-27T14:32:51.638Z,0.90
2023-01-27T14:35:36.527Z,0.80
2023-01-27T14:38:34.342Z,0.80
2023-01-27T14:41:20.920Z,0.90
2023-01-27T14:44:21.495Z,0.80
2023-01-27T14:47:16.098Z,0.70
2023-01-27T14:49:53.536Z,0.60
2023-01-27T14:52:48.565Z,0.50
2023-01-27T14:55:33.403Z,0.50
2023-01-27T14:58:19.064Z,0.20
2023-01-27T15:01:09.199Z,0.00
2023-01-27T15:03:36.248Z,-0.10
2023-01-27T15:06:12.051Z,-0.20
2023-01-27T15:08:58.082Z,-0.20
2023-01-27T15:11:58.484Z,-0.20
2023-01-27T15:14:59.528Z,-0.30
2023-01-27T15:17:53.241Z,-0.30
2023-01-27T15:20:54.235Z,-0.30
2023-01-27T15:23:51.728Z,-0.10
2023-01-27T15:26:23.521Z,-0.30
2023-01-27T15:28:52.756Z,-0.30
2023-01-27T15:31:28.365Z,-0.30
2023-01-27T15:34:15.089Z,-0.60
2023-01-27T15:37:06.624Z,-0.60
2023-01-27T15:39:59.229Z,-0.70
2023-01-27T15:43:00.427Z,-0.80
2023-01-27T15:45:27.207Z,-0.80
2023-01-27T15:48:20.161Z,-0.60
2023-01-27T15:51:03.442Z,-0.60
2023-01-27T15:53:34.681Z,-0.60
2023-01-27T15:56:02.531Z,1.50
2023-01-27T15:58:45.639Z,-0.40
2023-01-27T16:01:28.920Z,-0.60
2023-01-27T16:04:10.240Z,-0.70
2023-01-27T16:06:46.817Z,-0.60
2023-01-27T16:09:38.830Z,-0.70
2023-01-27T16:12:31.028Z,-0.90
2023-01-27T16:15:19.825Z,-0.80
2023-01-27T16:18:18.044Z,-0.80
2023-01-27T16:21:01.633Z,-0.80
2023-01-27T16:23:28.347Z,-0.90
2023-01-27T16:26:30.007Z,-0.80
2023-01-27T16:29:26.065Z,-0.80
2023-01-27T16:31:59.079Z,-0.70
2023-01-27T16:34:41.700Z,-0.70
2023-01-27T16:37:32.461Z,-0.80
2023-01-27T16:40:14.973Z,-0.90
2023-01-27T16:42:59.097Z,-0.80
2023-01-27T16:45:30.490Z,-0.90
2023-01-27T16:47:59.443Z,-0.80
2023-01-27T16:50:35.444Z,-0.70
2023-01-27T16:53:08.313Z,-0.70
2023-01-27T16:55:35.141Z,-0.70
2023-01-27T16:58:02.632Z,-0.70
2023-01-27T17:00:34.229Z,-0.70
2023-01-27T17:03:07.792Z,0.20
2023-01-27T17:05:34.724Z,0.60
2023-01-27T17:08:15.119Z,-0.60
2023-01-27T17:10:45.395Z,-0.80
2023-01-27T17:13:51.496Z,-0.80
2023-01-27T17:16:30.017Z,-0.90
2023-01-27T17:19:04.255Z,-0.90
2023-01-27T17:21:45.355Z,-0.90
2023-01-27T17:24:19.421Z,-0.80
2023-01-27T17:26:51.522Z,-0.70
2023-01-27T17:29:22.763Z,-0.60
2023-01-27T17:31:50.301Z,-0.30
2023-01-27T17:34:19.561Z,-0.60
2023-01-27T17:37:15.638Z,-0.60
2023-01-27T17:39:43.400Z,-0.70
2023-01-27T17:42:16.868Z,-0.80
2023-01-27T17:44:45.377Z,-0.80
2023-01-27T17:47:19.145Z,-0.70
2023-01-27T17:49:49.486Z,-0.80
2023-01-27T17:52:23.916Z,-0.80
2023-01-27T17:54:52.363Z,-0.70
2023-01-27T17:57:24.070Z,-0.60
2023-01-27T17:59:51.686Z,-0.70
2023-01-27T18:02:31.221Z,-0.70
2023-01-27T18:05:12.779Z,-0.60
2023-01-27T18:07:40.791Z,-0.60
2023-01-27T18:10:25.918Z,-0.50
2023-01-27T18:12:58.627Z,-0.60
2023-01-27T18:15:37.239Z,-0.80
2023-01-27T18:18:26.887Z,-0.60
2023-01-27T18:20:59.596Z,-0.60
2023-01-27T18:23:32.693Z,0.20
2023-01-27T18:26:30.282Z,-0.60
2023-01-27T18:29:00.052Z,-0.70
2023-01-27T18:31:31.015Z,-0.70
2023-01-27T18:34:08.099Z,-0.60
2023-01-27T18:36:37.513Z,-0.70
2023-01-27T18:39:26.546Z,-0.30
2023-01-27T18:41:56.581Z,-0.90
2023-01-27T18:44:27.207Z,-0.80
2023-01-27T18:47:09.829Z,-0.70
2023-01-27T18:49:37.415Z,-0.60
2023-01-27T18:52:14.223Z,-0.60
2023-01-27T18:54:43.749Z,-0.70
2023-01-27T18:57:10.592Z,-0.70
2023-01-27T18:59:37.392Z,-0.70
2023-01-27T19:02:12.251Z,-0.70
2023-01-27T19:04:39.044Z,-0.70
2023-01-27T19:07:17.340Z,-0.70
2023-01-27T19:09:47.479Z,-0.70
2023-01-27T19:12:42.547Z,-0.70
2023-01-27T19:15:12.933Z,-0.70
2023-01-27T19:17:40.002Z,-0.80
2023-01-27T19:20:18.167Z,-0.80
2023-01-27T19:22:45.711Z,-0.90
2023-01-27T19:25:17.493Z,-0.90
2023-01-27T19:27:47.950Z,-0.80
2023-01-27T19:30:33.621Z,-0.80
2023-01-27T19:33:00.393Z,-0.80
2023-01-27T19:35:33.107Z,-0.90
2023-01-27T19:38:06.329Z,-0.80
2023-01-27T19:40:35.087Z,-0.80
2023-01-27T19:43:01.920Z,-0.90
2023-01-27T19:45:28.750Z,-0.80
2023-01-27T19:48:01.470Z,-0.90
2023-01-27T19:50:31.584Z,-0.80
2023-01-27T19:53:00.396Z,-0.80
2023-01-27T19:55:27.262Z,-0.90
2023-01-27T19:57:56.364Z,-0.90
2023-01-27T20:00:36.949Z,-0.90
2023-01-27T20:03:04.483Z,-1.00
2023-01-27T20:05:35.182Z,-0.90
2023-01-27T20:08:02.377Z,-0.90
2023-01-27T20:10:34.778Z,-0.90
2023-01-27T20:13:14.361Z,-0.90
2023-01-27T20:15:43.900Z,-0.90
2023-01-27T20:18:15.368Z,-1.10
2023-01-27T20:20:45.415Z,-1.10
2023-01-27T20:23:17.306Z,-1.10
2023-01-27T20:25:46.487Z,-1.10
2023-01-27T20:28:13.247Z,-1.10
2023-01-27T20:30:43.767Z,-1.00
2023-01-27T20:33:10.676Z,-1.00
2023-01-27T20:35:38.033Z,-1.00
2023-01-27T20:38:06.630Z,-1.20
2023-01-27T20:40:36.649Z,-1.10
2023-01-27T20:43:03.711Z,-1.10
2023-01-27T20:45:30.452Z,-1.10
2023-01-27T20:47:59.507Z,-1.10
2023-01-27T20:50:26.570Z,-1.00
2023-01-27T20:52:53.659Z,-1.00
2023-01-27T20:55:20.429Z,-0.90
2023-01-27T20:57:48.502Z,-0.90
2023-01-27T21:00:17.324Z,-0.90
2023-01-27T21:02:44.252Z,-0.90
2023-01-27T21:05:15.802Z,-1.00
2023-01-27T21:07:43.224Z,-1.00
2023-01-27T21:10:13.167Z,-1.00
2023-01-27T21:12:41.369Z,-1.00
2023-01-27T21:15:12.865Z,-1.00
2023-01-27T21:17:39.789Z,-1.10
2023-01-27T21:20:07.146Z,-1.00
2023-01-27T21:22:36.686Z,-1.10
2023-01-27T21:25:04.910Z,-1.10
2023-01-27T21:27:31.908Z,-1.00
2023-01-27T21:29:58.667Z,-1.00
2023-01-27T21:32:25.710Z,-1.10
2023-01-27T21:34:52.640Z,-1.30
2023-01-27T21:37:19.378Z,-1.20
2023-01-27T21:39:48.599Z,-1.10
2023-01-27T21:42:15.495Z,-1.00
2023-01-27T21:45:00.692Z,-1.00
2023-01-27T21:47:27.507Z,-1.00
2023-01-27T21:50:04.156Z,-0.90
2023-01-27T21:52:35.876Z,-0.90
2023-01-27T21:55:04.368Z,-0.90
2023-01-27T21:57:31.597Z,-1.10
2023-01-27T21:59:59.832Z,-1.10
2023-01-27T22:02:26.996Z,-1.00
2023-01-27T22:04:53.801Z,-0.90
2023-01-27T22:07:20.692Z,-1.00
2023-01-27T22:09:50.195Z,-1.00
2023-01-27T22:12:20.244Z,-1.00
2023-01-27T22:14:48.558Z,-1.10
2023-01-27T22:17:15.660Z,-1.10
2023-01-27T22:19:42.404Z,-1.00
2023-01-27T22:22:11.983Z,-0.90
2023-01-27T22:24:41.516Z,-1.00
2023-01-27T22:27:08.412Z,-1.00
2023-01-27T22:29:35.182Z,-1.10
2023-01-27T22:32:02.035Z,-1.00
2023-01-27T22:38:16.726Z,-1.00
2023-01-27T22:40:43.462Z,-1.10
2023-01-27T22:43:10.443Z,-1.10
2023-01-27T22:45:40.733Z,-1.00
2023-01-27T22:50:49.329Z,-1.00
2023-01-27T22:53:18.403Z,-0.90
2023-01-27T22:55:45.163Z,-1.10
2023-01-27T22:58:12.234Z,-1.00
2023-01-27T23:00:39.112Z,-1.00
2023-01-27T23:03:05.850Z,-1.00
2023-01-27T23:05:32.600Z,-1.00
2023-01-27T23:07:59.345Z,-1.00
2023-01-27T23:10:26.103Z,-1.00
2023-01-27T23:12:52.964Z,-1.00
2023-01-27T23:15:19.820Z,-1.00
2023-01-27T23:17:51.227Z,-1.00
2023-01-27T23:20:20.419Z,-1.00
2023-01-27T23:23:05.973Z,-1.20
2023-01-27T23:25:33.760Z,-1.10
2023-01-27T23:28:02.900Z,-1.10
2023-01-27T23:30:29.680Z,-1.20
2023-01-27T23:32:57.275Z,-1.20
2023-01-27T23:35:24.349Z,-1.30
2023-01-27T23:37:51.140Z,-1.30
2023-01-27T23:40:18.295Z,-1.30
2023-01-27T23:42:45.049Z,-1.40
2023-01-27T23:45:14.594Z,-1.50
2023-01-27T23:47:41.585Z,-1.30
2023-01-27T23:50:11.346Z,-1.20
2023-01-27T23:52:40.179Z,-1.30
2023-01-27T23:58:53.968Z,-1.30
